sensor_id;sensor_type;location;lat;lon;timestamp;P1;durP1;ratioP1;P2;durP2;ratioP2
8777;SDS011;4425;50.872;4.712;2024-01-25T00:02:17;32.03;;;6.63;;
8777;SDS011;4425;50.872;4.712;2024-01-25T00:04:44;30.93;;;5.80;;
8777;SDS011;4425;50.872;4.712;2024-01-25T00:07:11;23.20;;;3.30;;
8777;SDS011;4425;50.872;4.712;2024-01-25T00:09:38;5.00;;;1.40;;
8777;SDS011;4425;50.872;4.712;2024-01-25T00:12:06;36.83;;;5.53;;
8777;SDS011;4425;50.872;4.712;2024-01-25T00:14:34;4.53;;;0.97;;
8777;SDS011;4425;50.872;4.712;2024-01-25T00:17:01;0.60;;;0.60;;
8777;SDS011;4425;50.872;4.712;2024-01-25T00:19:29;1.07;;;1.07;;
8777;SDS011;4425;50.872;4.712;2024-01-25T00:21:56;2.70;;;0.80;;
8777;SDS011;4425;50.872;4.712;2024-01-25T00:24:23;17.67;;;3.97;;
8777;SDS011;4425;50.872;4.712;2024-01-25T00:26:52;0.37;;;0.37;;
8777;SDS011;4425;50.872;4.712;2024-01-25T00:29:19;0.60;;;0.60;;
8777;SDS011;4425;50.872;4.712;2024-01-25T00:31:46;6.30;;;2.23;;
8777;SDS011;4425;50.872;4.712;2024-01-25T00:34:14;18.80;;;3.17;;
8777;SDS011;4425;50.872;4.712;2024-01-25T00:36:41;0.30;;;0.30;;
8777;SDS011;4425;50.872;4.712;2024-01-25T00:39:09;0.20;;;0.20;;
8777;SDS011;4425;50.872;4.712;2024-01-25T00:41:36;0.30;;;0.30;;
8777;SDS011;4425;50.872;4.712;2024-01-25T00:44:04;0.30;;;0.30;;
8777;SDS011;4425;50.872;4.712;2024-01-25T00:46:32;8.73;;;1.80;;
8777;SDS011;4425;50.872;4.712;2024-01-25T00:49:01;0.30;;;0.30;;
8777;SDS011;4425;50.872;4.712;2024-01-25T00:51:29;1.23;;;1.03;;
8777;SDS011;4425;50.872;4.712;2024-01-25T00:53:56;0.63;;;0.63;;
8777;SDS011;4425;50.872;4.712;2024-01-25T00:56:24;0.30;;;0.30;;
8777;SDS011;4425;50.872;4.712;2024-01-25T00:58:52;1.40;;;1.40;;
8777;SDS011;4425;50.872;4.712;2024-01-25T01:01:21;21.37;;;4.27;;
8777;SDS011;4425;50.872;4.712;2024-01-25T01:03:49;27.73;;;4.00;;
8777;SDS011;4425;50.872;4.712;2024-01-25T01:06:20;22.07;;;3.67;;
8777;SDS011;4425;50.872;4.712;2024-01-25T01:08:47;35.43;;;5.27;;
8777;SDS011;4425;50.872;4.712;2024-01-25T01:11:15;9.03;;;2.83;;
8777;SDS011;4425;50.872;4.712;2024-01-25T01:13:42;25.33;;;4.37;;
8777;SDS011;4425;50.872;4.712;2024-01-25T01:16:09;25.50;;;5.40;;
8777;SDS011;4425;50.872;4.712;2024-01-25T01:18:36;11.80;;;2.60;;
8777;SDS011;4425;50.872;4.712;2024-01-25T01:21:04;23.90;;;4.87;;
8777;SDS011;4425;50.872;4.712;2024-01-25T01:23:33;38.40;;;5.97;;
8777;SDS011;4425;50.872;4.712;2024-01-25T01:26:00;0.70;;;0.70;;
8777;SDS011;4425;50.872;4.712;2024-01-25T01:28:27;0.20;;;0.20;;
8777;SDS011;4425;50.872;4.712;2024-01-25T01:30:54;0.30;;;0.30;;
8777;SDS011;4425;50.872;4.712;2024-01-25T01:33:21;3.90;;;1.37;;
8777;SDS011;4425;50.872;4.712;2024-01-25T01:35:48;0.30;;;0.30;;
8777;SDS011;4425;50.872;4.712;2024-01-25T01:38:15;0.30;;;0.30;;
8777;SDS011;4425;50.872;4.712;2024-01-25T01:40:45;0.20;;;0.20;;
8777;SDS011;4425;50.872;4.712;2024-01-25T01:43:17;1.23;;;1.23;;
8777;SDS011;4425;50.872;4.712;2024-01-25T01:45:45;0.30;;;0.30;;
8777;SDS011;4425;50.872;4.712;2024-01-25T01:48:12;0.60;;;0.60;;
8777;SDS011;4425;50.872;4.712;2024-01-25T01:50:40;0.30;;;0.30;;
8777;SDS011;4425;50.872;4.712;2024-01-25T01:53:07;5.10;;;0.90;;
8777;SDS011;4425;50.872;4.712;2024-01-25T01:55:35;0.63;;;0.63;;
8777;SDS011;4425;50.872;4.712;2024-01-25T01:58:03;0.30;;;0.30;;
8777;SDS011;4425;50.872;4.712;2024-01-25T02:00:31;0.30;;;0.30;;
8777;SDS011;4425;50.872;4.712;2024-01-25T02:03:00;23.57;;;3.90;;
8777;SDS011;4425;50.872;4.712;2024-01-25T02:05:28;23.90;;;3.67;;
8777;SDS011;4425;50.872;4.712;2024-01-25T02:07:55;4.27;;;1.60;;
8777;SDS011;4425;50.872;4.712;2024-01-25T02:10:22;33.20;;;6.57;;
8777;SDS011;4425;50.872;4.712;2024-01-25T02:12:49;32.30;;;5.27;;
8777;SDS011;4425;50.872;4.712;2024-01-25T02:15:18;18.77;;;3.40;;
8777;SDS011;4425;50.872;4.712;2024-01-25T02:17:45;27.50;;;4.43;;
8777;SDS011;4425;50.872;4.712;2024-01-25T02:20:12;10.27;;;2.53;;
8777;SDS011;4425;50.872;4.712;2024-01-25T02:22:41;21.43;;;4.30;;
8777;SDS011;4425;50.872;4.712;2024-01-25T02:25:08;27.00;;;4.80;;
8777;SDS011;4425;50.872;4.712;2024-01-25T02:27:35;0.27;;;0.27;;
8777;SDS011;4425;50.872;4.712;2024-01-25T02:30:04;19.33;;;4.27;;
8777;SDS011;4425;50.872;4.712;2024-01-25T02:32:32;33.30;;;5.27;;
8777;SDS011;4425;50.872;4.712;2024-01-25T02:35:00;27.37;;;5.17;;
8777;SDS011;4425;50.872;4.712;2024-01-25T02:37:27;26.27;;;4.47;;
8777;SDS011;4425;50.872;4.712;2024-01-25T02:39:56;0.30;;;0.30;;
8777;SDS011;4425;50.872;4.712;2024-01-25T02:42:23;11.87;;;1.27;;
8777;SDS011;4425;50.872;4.712;2024-01-25T02:44:50;0.30;;;0.30;;
8777;SDS011;4425;50.872;4.712;2024-01-25T02:47:17;0.27;;;0.27;;
8777;SDS011;4425;50.872;4.712;2024-01-25T02:49:44;15.73;;;2.90;;
8777;SDS011;4425;50.872;4.712;2024-01-25T02:52:11;2.47;;;0.67;;
8777;SDS011;4425;50.872;4.712;2024-01-25T02:54:38;36.43;;;5.17;;
8777;SDS011;4425;50.872;4.712;2024-01-25T02:57:07;6.13;;;1.90;;
8777;SDS011;4425;50.872;4.712;2024-01-25T02:59:34;19.50;;;2.63;;
8777;SDS011;4425;50.872;4.712;2024-01-25T03:02:01;30.07;;;5.67;;
8777;SDS011;4425;50.872;4.712;2024-01-25T03:04:28;34.13;;;4.53;;
8777;SDS011;4425;50.872;4.712;2024-01-25T03:06:55;21.67;;;4.57;;
8777;SDS011;4425;50.872;4.712;2024-01-25T03:09:23;18.57;;;3.90;;
8777;SDS011;4425;50.872;4.712;2024-01-25T03:11:50;20.90;;;3.50;;
8777;SDS011;4425;50.872;4.712;2024-01-25T03:14:19;13.90;;;2.90;;
8777;SDS011;4425;50.872;4.712;2024-01-25T03:16:46;19.13;;;4.47;;
8777;SDS011;4425;50.872;4.712;2024-01-25T03:19:13;26.60;;;4.93;;
8777;SDS011;4425;50.872;4.712;2024-01-25T03:21:40;26.43;;;3.70;;
8777;SDS011;4425;50.872;4.712;2024-01-25T03:24:07;20.53;;;3.13;;
8777;SDS011;4425;50.872;4.712;2024-01-25T03:26:35;11.07;;;2.50;;
8777;SDS011;4425;50.872;4.712;2024-01-25T03:29:02;26.23;;;5.20;;
8777;SDS011;4425;50.872;4.712;2024-01-25T03:31:30;24.80;;;5.37;;
8777;SDS011;4425;50.872;4.712;2024-01-25T03:33:57;22.90;;;4.20;;
8777;SDS011;4425;50.872;4.712;2024-01-25T03:36:24;19.93;;;2.93;;
8777;SDS011;4425;50.872;4.712;2024-01-25T03:38:51;18.27;;;3.40;;
8777;SDS011;4425;50.872;4.712;2024-01-25T03:41:18;27.50;;;4.10;;
8777;SDS011;4425;50.872;4.712;2024-01-25T03:43:48;24.53;;;4.30;;
8777;SDS011;4425;50.872;4.712;2024-01-25T03:46:15;20.63;;;3.27;;
8777;SDS011;4425;50.872;4.712;2024-01-25T03:48:43;17.53;;;4.00;;
8777;SDS011;4425;50.872;4.712;2024-01-25T03:51:10;30.60;;;5.40;;
8777;SDS011;4425;50.872;4.712;2024-01-25T03:53:38;28.43;;;4.77;;
8777;SDS011;4425;50.872;4.712;2024-01-25T03:56:10;38.93;;;4.67;;
8777;SDS011;4425;50.872;4.712;2024-01-25T03:58:38;17.27;;;3.60;;
8777;SDS011;4425;50.872;4.712;2024-01-25T04:01:05;24.77;;;4.70;;
8777;SDS011;4425;50.872;4.712;2024-01-25T04:03:32;26.03;;;4.40;;
8777;SDS011;4425;50.872;4.712;2024-01-25T04:06:01;16.00;;;1.77;;
8777;SDS011;4425;50.872;4.712;2024-01-25T04:08:28;28.60;;;4.97;;
8777;SDS011;4425;50.872;4.712;2024-01-25T04:10:55;34.97;;;5.20;;
8777;SDS011;4425;50.872;4.712;2024-01-25T04:13:23;25.63;;;4.57;;
8777;SDS011;4425;50.872;4.712;2024-01-25T04:15:50;28.17;;;4.47;;
8777;SDS011;4425;50.872;4.712;2024-01-25T04:18:17;0.20;;;0.20;;
8777;SDS011;4425;50.872;4.712;2024-01-25T04:20:44;34.00;;;4.33;;
8777;SDS011;4425;50.872;4.712;2024-01-25T04:23:13;15.90;;;3.47;;
8777;SDS011;4425;50.872;4.712;2024-01-25T04:25:40;27.03;;;3.57;;
8777;SDS011;4425;50.872;4.712;2024-01-25T04:28:07;23.10;;;4.23;;
8777;SDS011;4425;50.872;4.712;2024-01-25T04:30:34;21.30;;;3.73;;
8777;SDS011;4425;50.872;4.712;2024-01-25T04:33:02;37.13;;;4.70;;
8777;SDS011;4425;50.872;4.712;2024-01-25T04:35:29;29.63;;;3.60;;
8777;SDS011;4425;50.872;4.712;2024-01-25T04:37:56;19.43;;;3.20;;
8777;SDS011;4425;50.872;4.712;2024-01-25T04:40:25;21.47;;;3.53;;
8777;SDS011;4425;50.872;4.712;2024-01-25T04:42:52;24.00;;;3.77;;
8777;SDS011;4425;50.872;4.712;2024-01-25T04:45:19;22.63;;;3.90;;
8777;SDS011;4425;50.872;4.712;2024-01-25T04:47:46;23.03;;;3.30;;
8777;SDS011;4425;50.872;4.712;2024-01-25T04:50:13;19.97;;;3.47;;
8777;SDS011;4425;50.872;4.712;2024-01-25T04:52:41;9.07;;;3.00;;
8777;SDS011;4425;50.872;4.712;2024-01-25T04:55:08;17.63;;;3.70;;
8777;SDS011;4425;50.872;4.712;2024-01-25T04:57:36;16.77;;;4.27;;
8777;SDS011;4425;50.872;4.712;2024-01-25T05:00:04;22.27;;;3.70;;
8777;SDS011;4425;50.872;4.712;2024-01-25T05:02:33;0.23;;;0.23;;
8777;SDS011;4425;50.872;4.712;2024-01-25T05:05:00;13.07;;;3.13;;
8777;SDS011;4425;50.872;4.712;2024-01-25T05:07:27;27.67;;;3.60;;
8777;SDS011;4425;50.872;4.712;2024-01-25T05:09:54;19.17;;;3.70;;
8777;SDS011;4425;50.872;4.712;2024-01-25T05:12:21;11.93;;;2.47;;
8777;SDS011;4425;50.872;4.712;2024-01-25T05:14:50;21.20;;;3.47;;
8777;SDS011;4425;50.872;4.712;2024-01-25T05:17:17;0.30;;;0.30;;
8777;SDS011;4425;50.872;4.712;2024-01-25T05:19:44;0.20;;;0.20;;
8777;SDS011;4425;50.872;4.712;2024-01-25T05:22:11;0.30;;;0.30;;
8777;SDS011;4425;50.872;4.712;2024-01-25T05:24:38;2.43;;;0.83;;
8777;SDS011;4425;50.872;4.712;2024-01-25T05:27:06;8.57;;;1.90;;
8777;SDS011;4425;50.872;4.712;2024-01-25T05:29:33;0.30;;;0.30;;
8777;SDS011;4425;50.872;4.712;2024-01-25T05:32:01;0.30;;;0.30;;
8777;SDS011;4425;50.872;4.712;2024-01-25T05:34:29;0.30;;;0.30;;
8777;SDS011;4425;50.872;4.712;2024-01-25T05:36:56;0.30;;;0.30;;
8777;SDS011;4425;50.872;4.712;2024-01-25T05:39:23;0.20;;;0.20;;
8777;SDS011;4425;50.872;4.712;2024-01-25T05:41:50;0.30;;;0.30;;
8777;SDS011;4425;50.872;4.712;2024-01-25T05:44:17;0.20;;;0.20;;
8777;SDS011;4425;50.872;4.712;2024-01-25T05:46:44;20.77;;;3.27;;
8777;SDS011;4425;50.872;4.712;2024-01-25T05:49:13;0.30;;;0.30;;
8777;SDS011;4425;50.872;4.712;2024-01-25T05:51:40;24.53;;;3.43;;
8777;SDS011;4425;50.872;4.712;2024-01-25T05:54:07;18.10;;;4.27;;
8777;SDS011;4425;50.872;4.712;2024-01-25T05:56:34;11.00;;;3.80;;
8777;SDS011;4425;50.872;4.712;2024-01-25T05:59:01;0.20;;;0.20;;
8777;SDS011;4425;50.872;4.712;2024-01-25T06:01:28;0.27;;;0.27;;
8777;SDS011;4425;50.872;4.712;2024-01-25T06:03:54;13.37;;;2.70;;
8777;SDS011;4425;50.872;4.712;2024-01-25T06:06:23;21.77;;;3.43;;
8777;SDS011;4425;50.872;4.712;2024-01-25T06:08:50;24.20;;;4.73;;
8777;SDS011;4425;50.872;4.712;2024-01-25T06:11:17;0.30;;;0.30;;
8777;SDS011;4425;50.872;4.712;2024-01-25T06:13:44;24.70;;;3.53;;
8777;SDS011;4425;50.872;4.712;2024-01-25T06:16:11;0.23;;;0.23;;
8777;SDS011;4425;50.872;4.712;2024-01-25T06:18:38;0.30;;;0.30;;
8777;SDS011;4425;50.872;4.712;2024-01-25T06:21:05;14.97;;;2.83;;
8777;SDS011;4425;50.872;4.712;2024-01-25T06:23:34;0.30;;;0.30;;
8777;SDS011;4425;50.872;4.712;2024-01-25T06:26:01;0.20;;;0.20;;
8777;SDS011;4425;50.872;4.712;2024-01-25T06:28:29;1.33;;;1.33;;
8777;SDS011;4425;50.872;4.712;2024-01-25T06:30:56;0.20;;;0.20;;
8777;SDS011;4425;50.872;4.712;2024-01-25T06:33:23;0.20;;;0.20;;
8777;SDS011;4425;50.872;4.712;2024-01-25T06:35:50;23.97;;;3.30;;
8777;SDS011;4425;50.872;4.712;2024-01-25T06:38:17;19.87;;;5.23;;
8777;SDS011;4425;50.872;4.712;2024-01-25T06:40:46;21.67;;;3.53;;
8777;SDS011;4425;50.872;4.712;2024-01-25T06:43:13;18.43;;;3.87;;
8777;SDS011;4425;50.872;4.712;2024-01-25T06:45:40;22.13;;;4.60;;
8777;SDS011;4425;50.872;4.712;2024-01-25T06:48:08;26.80;;;3.83;;
8777;SDS011;4425;50.872;4.712;2024-01-25T06:50:35;14.43;;;3.50;;
8777;SDS011;4425;50.872;4.712;2024-01-25T06:53:02;28.60;;;5.30;;
8777;SDS011;4425;50.872;4.712;2024-01-25T06:55:30;31.33;;;5.67;;
8777;SDS011;4425;50.872;4.712;2024-01-25T06:57:58;31.87;;;5.90;;
8777;SDS011;4425;50.872;4.712;2024-01-25T07:00:26;28.97;;;5.27;;
8777;SDS011;4425;50.872;4.712;2024-01-25T07:02:53;25.20;;;4.77;;
8777;SDS011;4425;50.872;4.712;2024-01-25T07:05:20;20.30;;;4.00;;
8777;SDS011;4425;50.872;4.712;2024-01-25T07:07:47;22.57;;;5.03;;
8777;SDS011;4425;50.872;4.712;2024-01-25T07:10:14;27.43;;;4.83;;
8777;SDS011;4425;50.872;4.712;2024-01-25T07:12:42;27.57;;;5.53;;
8777;SDS011;4425;50.872;4.712;2024-01-25T07:15:11;29.33;;;5.30;;
8777;SDS011;4425;50.872;4.712;2024-01-25T07:17:38;39.83;;;6.80;;
8777;SDS011;4425;50.872;4.712;2024-01-25T07:20:06;33.03;;;6.30;;
8777;SDS011;4425;50.872;4.712;2024-01-25T07:22:34;33.13;;;5.60;;
8777;SDS011;4425;50.872;4.712;2024-01-25T07:25:01;46.50;;;7.00;;
8777;SDS011;4425;50.872;4.712;2024-01-25T07:27:28;31.90;;;5.03;;
8777;SDS011;4425;50.872;4.712;2024-01-25T07:29:55;43.13;;;6.83;;
8777;SDS011;4425;50.872;4.712;2024-01-25T07:32:24;24.67;;;4.60;;
8777;SDS011;4425;50.872;4.712;2024-01-25T07:34:52;23.77;;;5.80;;
8777;SDS011;4425;50.872;4.712;2024-01-25T07:37:19;40.00;;;6.73;;
8777;SDS011;4425;50.872;4.712;2024-01-25T07:39:46;37.63;;;6.73;;
8777;SDS011;4425;50.872;4.712;2024-01-25T07:42:13;47.37;;;8.37;;
8777;SDS011;4425;50.872;4.712;2024-01-25T07:44:40;28.03;;;6.43;;
8777;SDS011;4425;50.872;4.712;2024-01-25T07:47:07;31.17;;;6.53;;
8777;SDS011;4425;50.872;4.712;2024-01-25T07:49:36;31.43;;;6.57;;
8777;SDS011;4425;50.872;4.712;2024-01-25T07:52:03;24.80;;;6.63;;
8777;SDS011;4425;50.872;4.712;2024-01-25T07:54:31;28.50;;;7.30;;
8777;SDS011;4425;50.872;4.712;2024-01-25T07:56:58;28.40;;;7.43;;
8777;SDS011;4425;50.872;4.712;2024-01-25T07:59:25;27.20;;;6.37;;
8777;SDS011;4425;50.872;4.712;2024-01-25T08:01:52;28.97;;;7.07;;
8777;SDS011;4425;50.872;4.712;2024-01-25T08:04:19;23.13;;;7.00;;
8777;SDS011;4425;50.872;4.712;2024-01-25T08:06:48;31.13;;;7.90;;
8777;SDS011;4425;50.872;4.712;2024-01-25T08:09:15;50.00;;;8.90;;
8777;SDS011;4425;50.872;4.712;2024-01-25T08:11:42;32.53;;;7.70;;
8777;SDS011;4425;50.872;4.712;2024-01-25T08:14:10;22.50;;;7.57;;
8777;SDS011;4425;50.872;4.712;2024-01-25T08:16:37;29.47;;;7.80;;
8777;SDS011;4425;50.872;4.712;2024-01-25T08:19:04;26.60;;;9.50;;
8777;SDS011;4425;50.872;4.712;2024-01-25T08:21:31;21.27;;;7.23;;
8777;SDS011;4425;50.872;4.712;2024-01-25T08:24:02;27.20;;;7.80;;
8777;SDS011;4425;50.872;4.712;2024-01-25T08:26:30;26.27;;;8.43;;
8777;SDS011;4425;50.872;4.712;2024-01-25T08:28:57;28.63;;;8.27;;
8777;SDS011;4425;50.872;4.712;2024-01-25T08:31:25;29.17;;;8.03;;
8777;SDS011;4425;50.872;4.712;2024-01-25T08:33:52;18.23;;;6.03;;
8777;SDS011;4425;50.872;4.712;2024-01-25T08:36:19;24.37;;;7.70;;
8777;SDS011;4425;50.872;4.712;2024-01-25T08:38:47;21.23;;;6.87;;
8777;SDS011;4425;50.872;4.712;2024-01-25T08:41:15;26.17;;;8.47;;
8777;SDS011;4425;50.872;4.712;2024-01-25T08:43:42;24.30;;;8.10;;
8777;SDS011;4425;50.872;4.712;2024-01-25T08:46:12;7.33;;;2.87;;
8777;SDS011;4425;50.872;4.712;2024-01-25T08:48:39;16.27;;;5.50;;
8777;SDS011;4425;50.872;4.712;2024-01-25T08:51:07;10.80;;;4.90;;
8777;SDS011;4425;50.872;4.712;2024-01-25T08:53:36;10.17;;;4.73;;
8777;SDS011;4425;50.872;4.712;2024-01-25T08:56:04;14.20;;;4.57;;
8777;SDS011;4425;50.872;4.712;2024-01-25T08:58:40;0.77;;;0.77;;
8777;SDS011;4425;50.872;4.712;2024-01-25T09:01:07;0.37;;;0.37;;
8777;SDS011;4425;50.872;4.712;2024-01-25T09:03:35;0.63;;;0.63;;
8777;SDS011;4425;50.872;4.712;2024-01-25T09:06:03;0.57;;;0.57;;
8777;SDS011;4425;50.872;4.712;2024-01-25T09:08:31;0.70;;;0.63;;
8777;SDS011;4425;50.872;4.712;2024-01-25T09:10:59;0.20;;;0.20;;
8777;SDS011;4425;50.872;4.712;2024-01-25T09:13:26;0.20;;;0.20;;
8777;SDS011;4425;50.872;4.712;2024-01-25T09:15:54;16.27;;;6.10;;
8777;SDS011;4425;50.872;4.712;2024-01-25T09:18:22;18.97;;;7.77;;
8777;SDS011;4425;50.872;4.712;2024-01-25T09:20:49;27.63;;;8.73;;
8777;SDS011;4425;50.872;4.712;2024-01-25T09:23:16;23.40;;;8.40;;
8777;SDS011;4425;50.872;4.712;2024-01-25T09:25:44;24.37;;;8.77;;
8777;SDS011;4425;50.872;4.712;2024-01-25T09:28:11;6.90;;;3.93;;
8777;SDS011;4425;50.872;4.712;2024-01-25T09:30:39;13.97;;;5.90;;
8777;SDS011;4425;50.872;4.712;2024-01-25T09:33:08;18.30;;;6.93;;
8777;SDS011;4425;50.872;4.712;2024-01-25T09:35:35;16.83;;;6.23;;
8777;SDS011;4425;50.872;4.712;2024-01-25T09:38:02;28.93;;;8.97;;
8777;SDS011;4425;50.872;4.712;2024-01-25T09:40:30;16.33;;;7.23;;
8777;SDS011;4425;50.872;4.712;2024-01-25T09:42:58;1.87;;;1.70;;
8777;SDS011;4425;50.872;4.712;2024-01-25T09:45:25;0.93;;;0.30;;
8777;SDS011;4425;50.872;4.712;2024-01-25T09:48:00;4.87;;;4.57;;
8777;SDS011;4425;50.872;4.712;2024-01-25T09:50:31;0.43;;;0.43;;
8777;SDS011;4425;50.872;4.712;2024-01-25T09:53:00;0.20;;;0.20;;
8777;SDS011;4425;50.872;4.712;2024-01-25T09:55:29;21.97;;;7.37;;
8777;SDS011;4425;50.872;4.712;2024-01-25T09:57:59;13.93;;;6.13;;
8777;SDS011;4425;50.872;4.712;2024-01-25T10:00:26;25.40;;;8.33;;
8777;SDS011;4425;50.872;4.712;2024-01-25T10:02:53;25.67;;;8.87;;
8777;SDS011;4425;50.872;4.712;2024-01-25T10:05:20;34.07;;;10.07;;
8777;SDS011;4425;50.872;4.712;2024-01-25T10:07:49;30.23;;;10.00;;
8777;SDS011;4425;50.872;4.712;2024-01-25T10:10:16;17.30;;;6.23;;
8777;SDS011;4425;50.872;4.712;2024-01-25T10:12:44;18.13;;;6.90;;
8777;SDS011;4425;50.872;4.712;2024-01-25T10:15:11;27.57;;;10.33;;
8777;SDS011;4425;50.872;4.712;2024-01-25T10:17:38;26.00;;;9.30;;
8777;SDS011;4425;50.872;4.712;2024-01-25T10:20:06;25.43;;;9.43;;
8777;SDS011;4425;50.872;4.712;2024-01-25T10:22:36;20.60;;;9.47;;
8777;SDS011;4425;50.872;4.712;2024-01-25T10:25:06;26.10;;;9.70;;
8777;SDS011;4425;50.872;4.712;2024-01-25T10:27:39;26.00;;;10.03;;
8777;SDS011;4425;50.872;4.712;2024-01-25T10:30:07;24.47;;;10.20;;
8777;SDS011;4425;50.872;4.712;2024-01-25T10:32:37;24.03;;;10.07;;
8777;SDS011;4425;50.872;4.712;2024-01-25T10:35:06;32.53;;;12.13;;
8777;SDS011;4425;50.872;4.712;2024-01-25T10:37:35;34.63;;;11.53;;
8777;SDS011;4425;50.872;4.712;2024-01-25T10:40:07;33.07;;;12.37;;
8777;SDS011;4425;50.872;4.712;2024-01-25T10:42:36;33.33;;;12.33;;
8777;SDS011;4425;50.872;4.712;2024-01-25T10:45:03;38.00;;;13.00;;
8777;SDS011;4425;50.872;4.712;2024-01-25T10:47:32;34.40;;;11.47;;
8777;SDS011;4425;50.872;4.712;2024-01-25T10:50:00;39.77;;;12.83;;
8777;SDS011;4425;50.872;4.712;2024-01-25T10:52:28;33.07;;;11.27;;
8777;SDS011;4425;50.872;4.712;2024-01-25T10:54:57;41.83;;;12.67;;
8777;SDS011;4425;50.872;4.712;2024-01-25T10:57:28;37.53;;;12.10;;
8777;SDS011;4425;50.872;4.712;2024-01-25T11:00:03;33.53;;;11.37;;
8777;SDS011;4425;50.872;4.712;2024-01-25T11:02:34;32.70;;;11.57;;
8777;SDS011;4425;50.872;4.712;2024-01-25T11:05:01;35.20;;;13.00;;
8777;SDS011;4425;50.872;4.712;2024-01-25T11:07:40;47.57;;;13.20;;
8777;SDS011;4425;50.872;4.712;2024-01-25T11:10:10;40.40;;;12.57;;
8777;SDS011;4425;50.872;4.712;2024-01-25T11:12:48;40.80;;;12.80;;
8777;SDS011;4425;50.872;4.712;2024-01-25T11:15:20;43.13;;;13.10;;
8777;SDS011;4425;50.872;4.712;2024-01-25T11:17:55;42.40;;;14.00;;
8777;SDS011;4425;50.872;4.712;2024-01-25T11:20:23;44.33;;;12.73;;
8777;SDS011;4425;50.872;4.712;2024-01-25T11:22:55;36.47;;;12.27;;
8777;SDS011;4425;50.872;4.712;2024-01-25T11:25:26;36.90;;;12.00;;
8777;SDS011;4425;50.872;4.712;2024-01-25T11:27:55;38.07;;;12.27;;
8777;SDS011;4425;50.872;4.712;2024-01-25T11:30:23;21.40;;;8.30;;
8777;SDS011;4425;50.872;4.712;2024-01-25T11:32:51;1.00;;;0.93;;
8777;SDS011;4425;50.872;4.712;2024-01-25T11:35:19;10.03;;;4.53;;
8777;SDS011;4425;50.872;4.712;2024-01-25T11:37:47;16.37;;;5.73;;
8777;SDS011;4425;50.872;4.712;2024-01-25T11:40:16;34.80;;;11.13;;
8777;SDS011;4425;50.872;4.712;2024-01-25T11:42:44;37.53;;;11.60;;
8777;SDS011;4425;50.872;4.712;2024-01-25T11:45:15;34.10;;;10.90;;
8777;SDS011;4425;50.872;4.712;2024-01-25T11:47:43;30.27;;;10.93;;
8777;SDS011;4425;50.872;4.712;2024-01-25T11:50:11;40.43;;;11.27;;
8777;SDS011;4425;50.872;4.712;2024-01-25T11:52:38;30.87;;;10.73;;
8777;SDS011;4425;50.872;4.712;2024-01-25T11:55:06;28.37;;;11.00;;
8777;SDS011;4425;50.872;4.712;2024-01-25T11:57:35;21.80;;;8.43;;
8777;SDS011;4425;50.872;4.712;2024-01-25T12:00:04;29.50;;;9.67;;
8777;SDS011;4425;50.872;4.712;2024-01-25T12:02:36;36.33;;;10.87;;
8777;SDS011;4425;50.872;4.712;2024-01-25T12:05:04;33.50;;;10.50;;
8777;SDS011;4425;50.872;4.712;2024-01-25T12:07:32;0.40;;;0.40;;
8777;SDS011;4425;50.872;4.712;2024-01-25T12:10:01;37.63;;;11.23;;
8777;SDS011;4425;50.872;4.712;2024-01-25T12:12:30;24.00;;;8.60;;
8777;SDS011;4425;50.872;4.712;2024-01-25T12:14:58;42.27;;;11.27;;
8777;SDS011;4425;50.872;4.712;2024-01-25T12:17:26;30.97;;;11.27;;
8777;SDS011;4425;50.872;4.712;2024-01-25T12:19:56;39.83;;;10.57;;
8777;SDS011;4425;50.872;4.712;2024-01-25T12:22:24;38.47;;;11.53;;
8777;SDS011;4425;50.872;4.712;2024-01-25T12:24:55;40.90;;;10.90;;
8777;SDS011;4425;50.872;4.712;2024-01-25T12:27:24;37.17;;;11.00;;
8777;SDS011;4425;50.872;4.712;2024-01-25T12:29:52;25.57;;;8.50;;
8777;SDS011;4425;50.872;4.712;2024-01-25T12:32:20;30.33;;;10.70;;
8777;SDS011;4425;50.872;4.712;2024-01-25T12:34:54;35.80;;;11.90;;
8777;SDS011;4425;50.872;4.712;2024-01-25T12:37:23;38.77;;;11.70;;
8777;SDS011;4425;50.872;4.712;2024-01-25T12:39:51;38.30;;;11.30;;
8777;SDS011;4425;50.872;4.712;2024-01-25T12:42:19;37.13;;;12.67;;
8777;SDS011;4425;50.872;4.712;2024-01-25T12:44:46;32.63;;;9.60;;
8777;SDS011;4425;50.872;4.712;2024-01-25T12:47:14;30.57;;;10.53;;
8777;SDS011;4425;50.872;4.712;2024-01-25T12:49:41;30.83;;;10.37;;
8777;SDS011;4425;50.872;4.712;2024-01-25T12:52:10;44.20;;;10.37;;
8777;SDS011;4425;50.872;4.712;2024-01-25T12:54:39;34.50;;;11.00;;
8777;SDS011;4425;50.872;4.712;2024-01-25T12:57:07;42.57;;;11.23;;
8777;SDS011;4425;50.872;4.712;2024-01-25T12:59:35;25.33;;;10.77;;
8777;SDS011;4425;50.872;4.712;2024-01-25T13:02:03;40.37;;;10.60;;
8777;SDS011;4425;50.872;4.712;2024-01-25T13:04:31;29.13;;;11.03;;
8777;SDS011;4425;50.872;4.712;2024-01-25T13:06:59;36.40;;;10.27;;
8777;SDS011;4425;50.872;4.712;2024-01-25T13:09:26;24.97;;;9.00;;
8777;SDS011;4425;50.872;4.712;2024-01-25T13:14:39;33.80;;;9.37;;
8777;SDS011;4425;50.872;4.712;2024-01-25T13:17:06;29.57;;;9.53;;
8777;SDS011;4425;50.872;4.712;2024-01-25T13:19:33;29.00;;;9.90;;
8777;SDS011;4425;50.872;4.712;2024-01-25T13:22:01;31.13;;;8.97;;
8777;SDS011;4425;50.872;4.712;2024-01-25T13:24:28;24.10;;;8.50;;
8777;SDS011;4425;50.872;4.712;2024-01-25T13:26:55;24.93;;;8.63;;
8777;SDS011;4425;50.872;4.712;2024-01-25T13:29:24;20.63;;;9.23;;
8777;SDS011;4425;50.872;4.712;2024-01-25T13:31:51;23.13;;;8.07;;
8777;SDS011;4425;50.872;4.712;2024-01-25T13:34:19;21.03;;;8.07;;
8777;SDS011;4425;50.872;4.712;2024-01-25T13:36:46;6.70;;;2.03;;
8777;SDS011;4425;50.872;4.712;2024-01-25T13:39:13;5.30;;;2.83;;
8777;SDS011;4425;50.872;4.712;2024-01-25T13:41:40;5.87;;;3.10;;
8777;SDS011;4425;50.872;4.712;2024-01-25T13:44:07;11.10;;;6.23;;
8777;SDS011;4425;50.872;4.712;2024-01-25T13:46:36;17.30;;;6.83;;
8777;SDS011;4425;50.872;4.712;2024-01-25T13:49:03;15.43;;;6.47;;
8777;SDS011;4425;50.872;4.712;2024-01-25T13:51:31;12.47;;;6.40;;
8777;SDS011;4425;50.872;4.712;2024-01-25T13:53:58;18.10;;;7.40;;
8777;SDS011;4425;50.872;4.712;2024-01-25T13:56:25;14.13;;;6.77;;
8777;SDS011;4425;50.872;4.712;2024-01-25T13:58:52;12.47;;;5.97;;
8777;SDS011;4425;50.872;4.712;2024-01-25T14:01:20;12.43;;;6.27;;
8777;SDS011;4425;50.872;4.712;2024-01-25T14:03:48;11.17;;;6.03;;
8777;SDS011;4425;50.872;4.712;2024-01-25T14:06:16;12.47;;;5.63;;
8777;SDS011;4425;50.872;4.712;2024-01-25T14:08:43;19.47;;;5.90;;
8777;SDS011;4425;50.872;4.712;2024-01-25T14:11:11;12.33;;;6.13;;
8777;SDS011;4425;50.872;4.712;2024-01-25T14:13:38;13.60;;;5.40;;
8777;SDS011;4425;50.872;4.712;2024-01-25T14:16:06;10.47;;;5.53;;
8777;SDS011;4425;50.872;4.712;2024-01-25T14:18:36;10.77;;;5.80;;
8777;SDS011;4425;50.872;4.712;2024-01-25T14:21:05;12.97;;;5.70;;
8777;SDS011;4425;50.872;4.712;2024-01-25T14:23:33;12.33;;;5.27;;
8777;SDS011;4425;50.872;4.712;2024-01-25T14:26:00;13.50;;;6.13;;
8777;SDS011;4425;50.872;4.712;2024-01-25T14:28:28;13.23;;;5.60;;
8777;SDS011;4425;50.872;4.712;2024-01-25T14:30:55;12.10;;;5.43;;
8777;SDS011;4425;50.872;4.712;2024-01-25T14:33:22;8.27;;;4.67;;
8777;SDS011;4425;50.872;4.712;2024-01-25T14:35:49;6.03;;;4.40;;
8777;SDS011;4425;50.872;4.712;2024-01-25T14:38:18;14.23;;;4.93;;
8777;SDS011;4425;50.872;4.712;2024-01-25T14:40:45;11.37;;;4.47;;
8777;SDS011;4425;50.872;4.712;2024-01-25T14:43:12;8.80;;;5.03;;
8777;SDS011;4425;50.872;4.712;2024-01-25T14:45:40;9.90;;;4.50;;
8777;SDS011;4425;50.872;4.712;2024-01-25T14:48:07;8.67;;;4.80;;
8777;SDS011;4425;50.872;4.712;2024-01-25T14:50:34;6.53;;;4.50;;
8777;SDS011;4425;50.872;4.712;2024-01-25T14:53:01;8.70;;;5.30;;
8777;SDS011;4425;50.872;4.712;2024-01-25T14:55:30;8.13;;;4.73;;
8777;SDS011;4425;50.872;4.712;2024-01-25T14:57:58;5.83;;;4.80;;
8777;SDS011;4425;50.872;4.712;2024-01-25T15:00:25;6.87;;;4.30;;
8777;SDS011;4425;50.872;4.712;2024-01-25T15:02:52;10.80;;;5.00;;
8777;SDS011;4425;50.872;4.712;2024-01-25T15:05:21;7.67;;;4.63;;
8777;SDS011;4425;50.872;4.712;2024-01-25T15:07:48;8.57;;;5.27;;
8777;SDS011;4425;50.872;4.712;2024-01-25T15:10:16;10.73;;;5.20;;